Time;durP1;ratioP1;P1;durP2;ratioP2;P2;SDS_P1;SDS_P2;PMS_P1;PMS_P2;Temp;Humidity;BMP_temperature;BMP_pressure;BME280_temperature;BME280_humidity;BME280_pressure;Samples;Min_cycle;Max_cycle;Signal;HPM_P1;HPM_P2
2021/01/14 00:01:04;;;;;;;27.55;6.78;;;4.50;92.80;;;;;;5115052;28;20077;-80
2021/01/14 00:03:30;;;;;;;14.60;6.03;;;4.50;92.80;;;;;;5079650;28;20518;-80
2021/01/14 00:05:55;;;;;;;28.13;6.68;;;4.50;92.80;;;;;;5114956;28;20027;-80
2021/01/14 00:08:21;;;;;;;17.95;6.00;;;4.40;92.80;;;;;;5096960;28;20023;-80
2021/01/14 00:10:47;;;;;;;20.00;6.35;;;4.40;92.80;;;;;;5114890;28;20410;-80
2021/01/14 00:13:13;;;;;;;19.48;6.07;;;4.40;92.80;;;;;;5113554;28;20028;-80
2021/01/14 00:15:38;;;;;;;27.20;6.18;;;4.40;92.80;;;;;;5114632;28;20065;-80
2021/01/14 00:18:04;;;;;;;17.52;5.78;;;4.40;92.80;;;;;;5114667;28;20074;-80
2021/01/14 00:20:30;;;;;;;16.38;5.70;;;4.40;92.80;;;;;;5114764;28;20031;-80
2021/01/14 00:22:56;;;;;;;21.33;5.75;;;4.40;92.70;;;;;;5096189;28;20468;-80
2021/01/14 00:25:21;;;;;;;18.30;5.55;;;4.40;92.70;;;;;;5110629;27;20027;-80
2021/01/14 00:27:49;;;;;;;19.75;5.40;;;4.40;92.70;;;;;;5111356;27;20027;-80
2021/01/14 00:30:19;;;;;;;16.35;5.60;;;4.40;92.70;;;;;;5132699;27;20069;-80
2021/01/14 00:32:45;;;;;;;18.05;5.63;;;4.50;92.70;;;;;;5120407;27;20028;-80
2021/01/14 00:35:11;;;;;;;17.90;5.70;;;4.50;92.70;;;;;;5113762;28;20078;-80
2021/01/14 00:37:51;;;;;;;13.95;3.17;;;4.50;92.60;;;;;;5096118;28;20057;-80
2021/01/14 00:40:25;;;;;;;12.63;3.08;;;4.50;92.50;;;;;;5098390;28;20063;-80
2021/01/14 00:43:03;;;;;;;12.13;2.40;;;4.40;92.10;;;;;;5114349;28;20019;-80
2021/01/14 00:45:30;;;;;;;14.70;2.33;;;4.40;91.50;;;;;;5114247;28;20015;-80
2021/01/14 00:47:56;;;;;;;14.40;2.75;;;4.30;91.00;;;;;;5114819;28;20076;-80
2021/01/14 00:50:22;;;;;;;12.60;2.00;;;4.30;90.70;;;;;;5114339;28;20076;-80
2021/01/14 00:52:48;;;;;;;7.22;1.95;;;4.30;90.40;;;;;;5103268;27;20475;-80
2021/01/14 00:55:15;;;;;;;7.28;1.83;;;4.30;90.50;;;;;;5126957;27;20023;-80
2021/01/14 00:57:41;;;;;;;11.50;2.30;;;4.30;90.50;;;;;;5076899;28;20107;-80
2021/01/14 01:00:09;;;;;;;9.63;1.50;;;4.30;90.50;;;;;;5097375;27;20099;-80
2021/01/14 01:02:35;;;;;;;7.03;1.80;;;4.30;90.50;;;;;;5134414;27;20106;-79
2021/01/14 01:05:01;;;;;;;9.65;1.95;;;4.30;90.60;;;;;;5116070;27;20468;-80
2021/01/14 01:07:27;;;;;;;6.07;1.88;;;4.30;90.70;;;;;;5115924;27;20026;-80
2021/01/14 01:09:52;;;;;;;10.38;1.95;;;4.30;90.70;;;;;;5116211;27;20106;-80
2021/01/14 01:12:18;;;;;;;9.43;1.80;;;4.30;90.70;;;;;;5099349;27;20379;-80
2021/01/14 01:14:44;;;;;;;14.43;2.55;;;4.30;90.70;;;;;;5115985;27;20031;-80
2021/01/14 01:17:10;;;;;;;9.18;1.50;;;4.30;90.60;;;;;;5116114;27;20027;-80
2021/01/14 01:19:36;;;;;;;15.00;2.30;;;4.30;90.60;;;;;;5116131;28;20063;-80
2021/01/14 01:22:01;;;;;;;7.90;1.90;;;4.30;90.50;;;;;;5134345;27;20104;-80
2021/01/14 01:24:27;;;;;;;14.90;1.92;;;4.30;90.30;;;;;;5115925;28;20019;-80
2021/01/14 01:26:53;;;;;;;11.35;1.52;;;4.30;90.30;;;;;;5134030;28;20047;-80
2021/01/14 01:29:20;;;;;;;11.00;1.90;;;4.30;90.30;;;;;;5115929;28;20382;-80
2021/01/14 01:31:46;;;;;;;11.70;2.10;;;4.30;90.60;;;;;;5134124;28;20019;-79
2021/01/14 01:34:12;;;;;;;14.50;1.80;;;4.30;90.20;;;;;;5115725;28;20433;-80
2021/01/14 01:36:37;;;;;;;14.63;1.88;;;4.30;90.10;;;;;;5115862;28;20084;-80
2021/01/14 01:39:04;;;;;;;6.72;1.50;;;4.20;89.50;;;;;;5116082;28;20487;-80
2021/01/14 01:41:30;;;;;;;9.07;1.52;;;4.20;89.70;;;;;;5115788;28;20030;-80
2021/01/14 01:43:55;;;;;;;8.68;1.58;;;4.20;89.70;;;;;;5115756;28;20023;-80
2021/01/14 01:46:29;;;;;;;10.75;1.38;;;4.20;88.90;;;;;;5118491;27;20027;-80
2021/01/14 01:48:57;;;;;;;7.30;1.20;;;4.20;88.40;;;;;;5119985;27;20023;-80
2021/01/14 01:51:26;;;;;;;7.75;1.48;;;4.20;88.10;;;;;;5119898;27;20111;-79
2021/01/14 01:53:52;;;;;;;10.50;1.50;;;4.10;88.00;;;;;;5119833;27;20026;-80
2021/01/14 01:56:18;;;;;;;9.30;1.60;;;4.20;88.10;;;;;;5138203;27;20031;-80
2021/01/14 01:58:45;;;;;;;9.18;1.35;;;4.20;88.20;;;;;;5112598;28;20068;-80
2021/01/14 02:01:11;;;;;;;12.43;1.77;;;4.10;89.10;;;;;;5099197;28;20408;-78
2021/01/14 02:03:36;;;;;;;6.07;1.50;;;4.10;88.60;;;;;;5099044;28;20081;-77
2021/01/14 02:06:02;;;;;;;6.40;1.33;;;4.20;88.70;;;;;;5065805;28;20115;-77
2021/01/14 02:08:34;;;;;;;9.18;1.83;;;4.20;88.90;;;;;;5126903;27;20367;-77
2021/01/14 02:11:05;;;;;;;14.85;1.63;;;4.10;88.80;;;;;;5131183;27;20092;-77
2021/01/14 02:13:54;;;;;;;10.85;2.00;;;4.20;88.90;;;;;;5108719;27;20386;-77
2021/01/14 02:16:20;;;;;;;6.38;1.17;;;4.10;88.90;;;;;;5100379;28;20070;-77
2021/01/14 02:18:47;;;;;;;12.23;1.92;;;4.10;88.80;;;;;;5098932;28;20518;-78
2021/01/14 02:21:14;;;;;;;10.70;1.40;;;4.10;89.00;;;;;;5098649;28;20166;-78
2021/01/14 02:23:50;;;;;;;8.82;1.33;;;4.10;89.00;;;;;;5098663;28;20480;-77
2021/01/14 02:26:22;;;;;;;9.65;1.40;;;4.10;88.90;;;;;;5116732;28;20485;-77
2021/01/14 02:28:48;;;;;;;9.00;1.40;;;4.10;88.90;;;;;;5116868;28;20016;-77
2021/01/14 02:31:19;;;;;;;8.40;1.42;;;4.10;88.70;;;;;;5115737;28;20056;-77
2021/01/14 02:33:47;;;;;;;8.05;1.10;;;4.10;88.60;;;;;;5115809;28;20039;-77
2021/01/14 02:36:12;;;;;;;4.90;0.90;;;4.00;88.50;;;;;;5115471;28;20028;-77
2021/01/14 02:38:38;;;;;;;7.93;1.45;;;4.00;88.60;;;;;;5115607;28;20034;-77
2021/01/14 02:41:03;;;;;;;7.75;0.75;;;4.00;88.60;;;;;;5114388;28;20081;-77
2021/01/14 02:43:29;;;;;;;8.23;1.40;;;4.00;88.30;;;;;;5082607;28;20030;-80
2021/01/14 02:45:55;;;;;;;9.60;1.58;;;4.00;88.30;;;;;;5116450;28;20020;-79
2021/01/14 02:48:28;;;;;;;12.88;1.38;;;4.00;88.30;;;;;;5116588;28;20032;-80
2021/01/14 02:50:57;;;;;;;8.02;1.00;;;4.00;87.80;;;;;;5116566;28;20054;-80
2021/01/14 02:53:24;;;;;;;5.20;0.90;;;4.00;87.80;;;;;;5098200;28;20491;-80
2021/01/14 02:55:51;;;;;;;4.20;1.10;;;4.00;88.00;;;;;;5116425;28;20490;-80
2021/01/14 02:58:17;;;;;;;8.25;1.30;;;4.00;88.00;;;;;;5115664;28;20022;-80
2021/01/14 03:00:42;;;;;;;8.20;1.27;;;4.00;88.00;;;;;;5092089;28;20396;-80
2021/01/14 03:03:08;;;;;;;6.55;1.05;;;4.00;87.80;;;;;;5116131;28;20035;-80
2021/01/14 03:05:33;;;;;;;10.98;0.80;;;3.90;87.70;;;;;;5116325;28;20034;-80
2021/01/14 03:07:59;;;;;;;8.05;1.65;;;3.90;87.80;;;;;;5098207;28;20361;-80
2021/01/14 03:10:24;;;;;;;6.68;1.05;;;3.90;87.60;;;;;;5116177;28;20084;-80
2021/01/14 03:12:50;;;;;;;12.00;1.20;;;3.90;87.50;;;;;;5116205;28;20392;-80
2021/01/14 03:15:16;;;;;;;7.15;1.00;;;3.90;87.30;;;;;;5110026;28;20109;-80
2021/01/14 03:17:41;;;;;;;6.60;0.98;;;3.90;87.40;;;;;;5097662;28;20484;-80
2021/01/14 03:20:07;;;;;;;8.55;1.27;;;3.90;88.10;;;;;;5115994;28;20032;-80
2021/01/14 03:22:42;;;;;;;4.43;1.30;;;3.90;87.30;;;;;;5114717;28;20081;-80
2021/01/14 03:25:10;;;;;;;7.85;1.02;;;3.90;87.40;;;;;;5114675;28;20058;-80
2021/01/14 03:27:40;;;;;;;4.75;0.90;;;3.80;87.40;;;;;;5114262;28;20043;-80
2021/01/14 03:30:08;;;;;;;7.68;1.30;;;3.80;88.00;;;;;;5115842;28;20030;-80
2021/01/14 03:32:33;;;;;;;6.45;1.33;;;3.80;87.20;;;;;;5114536;28;20032;-80
2021/01/14 03:34:59;;;;;;;7.95;1.25;;;3.70;87.40;;;;;;5114325;28;20039;-80
2021/01/14 03:37:25;;;;;;;5.38;0.90;;;3.70;87.70;;;;;;5115670;28;20507;-80
2021/01/14 03:39:50;;;;;;;7.55;1.15;;;3.70;87.70;;;;;;5114346;28;20031;-80
2021/01/14 03:42:22;;;;;;;5.35;1.30;;;3.70;87.80;;;;;;5115411;28;20041;-80
2021/01/14 03:44:49;;;;;;;11.93;1.00;;;3.60;87.40;;;;;;5115530;28;20058;-79
2021/01/14 03:47:15;;;;;;;6.53;1.08;;;3.60;87.40;;;;;;5115478;28;20020;-80
2021/01/14 03:49:41;;;;;;;9.55;1.30;;;3.60;87.70;;;;;;5115321;28;20031;-80
2021/01/14 03:52:11;;;;;;;4.93;0.90;;;3.60;87.70;;;;;;5114103;28;20110;-80
2021/01/14 03:54:37;;;;;;;7.28;1.30;;;3.50;88.50;;;;;;5115197;28;20024;-80
2021/01/14 03:57:03;;;;;;;7.28;1.25;;;3.50;88.60;;;;;;5114075;28;20023;-80
2021/01/14 03:59:29;;;;;;;7.43;1.20;;;3.50;88.10;;;;;;5115176;28;20028;-80
2021/01/14 04:01:59;;;;;;;7.82;1.23;;;3.50;88.10;;;;;;5099925;28;20491;-80
2021/01/14 04:04:25;;;;;;;4.72;0.90;;;3.50;88.00;;;;;;5113797;28;20024;-80
2021/01/14 04:06:51;;;;;;;3.90;0.90;;;3.50;87.80;;;;;;5114066;28;20077;-80
2021/01/14 04:09:17;;;;;;;4.97;0.90;;;3.50;87.90;;;;;;5112685;28;20045;-80
2021/01/14 04:11:43;;;;;;;6.95;1.00;;;3.50;87.80;;;;;;5114913;28;20023;-80
2021/01/14 04:14:08;;;;;;;6.57;1.52;;;3.40;87.70;;;;;;5113628;28;20035;-80
2021/01/14 04:16:34;;;;;;;10.20;2.10;;;3.40;87.80;;;;;;5114979;28;20039;-80
2021/01/14 04:18:59;;;;;;;4.15;0.88;;;3.30;87.90;;;;;;5096585;28;20039;-80
2021/01/14 04:21:28;;;;;;;8.07;1.15;;;3.30;88.10;;;;;;5114754;28;20092;-80
2021/01/14 04:23:53;;;;;;;6.80;1.13;;;3.40;89.00;;;;;;5113364;28;20030;-80
2021/01/14 04:26:19;;;;;;;8.65;1.33;;;3.40;88.50;;;;;;5113197;28;20138;-80
2021/01/14 04:28:44;;;;;;;6.28;1.17;;;3.40;88.70;;;;;;5096322;28;20031;-79
2021/01/14 04:31:12;;;;;;;5.20;1.00;;;3.40;88.70;;;;;;5096327;28;20023;-79
2021/01/14 04:33:38;;;;;;;5.22;0.88;;;3.40;88.90;;;;;;5114536;28;20065;-80
2021/01/14 04:36:04;;;;;;;8.02;1.35;;;3.30;89.00;;;;;;5096299;28;20086;-80
2021/01/14 04:38:30;;;;;;;8.90;1.30;;;3.40;89.20;;;;;;5096128;28;20024;-80
2021/01/14 04:41:03;;;;;;;7.05;1.27;;;3.40;89.10;;;;;;5113197;28;20108;-79
2021/01/14 04:43:31;;;;;;;5.55;1.13;;;3.40;89.00;;;;;;5113072;28;20032;-80
2021/01/14 04:46:07;;;;;;;5.35;1.10;;;3.40;89.00;;;;;;5112944;28;20020;-80
2021/01/14 04:48:40;;;;;;;7.20;1.30;;;3.40;88.80;;;;;;5113295;28;20476;-80
2021/01/14 04:51:17;;;;;;;7.88;1.10;;;3.40;88.70;;;;;;5112922;28;20027;-80
2021/01/14 04:53:50;;;;;;;7.72;1.30;;;3.40;88.70;;;;;;5114067;28;20112;-80
2021/01/14 04:56:19;;;;;;;9.05;1.23;;;3.40;88.70;;;;;;5110653;28;20032;-80
2021/01/14 04:58:49;;;;;;;4.40;1.02;;;3.40;88.50;;;;;;5114485;28;20031;-80
2021/01/14 05:01:18;;;;;;;6.53;1.10;;;3.40;88.50;;;;;;5113604;28;20054;-80
2021/01/14 05:03:48;;;;;;;6.32;1.60;;;3.40;88.50;;;;;;5113691;28;20027;-80
2021/01/14 05:06:22;;;;;;;4.93;0.88;;;3.40;88.50;;;;;;5113188;28;20522;-80
2021/01/14 05:08:58;;;;;;;10.30;1.10;;;3.40;88.40;;;;;;5113856;28;20031;-80
2021/01/14 05:11:25;;;;;;;6.65;1.05;;;3.40;88.30;;;;;;5113838;28;20023;-80
2021/01/14 05:13:51;;;;;;;5.63;1.35;;;3.40;88.70;;;;;;5113473;28;20560;-80
2021/01/14 05:16:17;;;;;;;8.73;1.25;;;3.40;88.00;;;;;;5113590;28;20063;-80
2021/01/14 05:18:43;;;;;;;6.07;1.17;;;3.40;87.90;;;;;;5095724;28;20057;-80
2021/01/14 05:21:09;;;;;;;8.23;1.10;;;3.40;87.80;;;;;;5095501;28;20051;-80
2021/01/14 05:23:35;;;;;;;8.32;1.38;;;3.30;87.80;;;;;;5113581;28;20062;-79
2021/01/14 05:26:01;;;;;;;5.47;1.33;;;3.30;87.80;;;;;;5113629;28;20505;-80
2021/01/14 05:28:32;;;;;;;7.22;0.93;;;3.30;87.80;;;;;;5103145;28;20499;-80
2021/01/14 05:31:14;;;;;;;12.70;1.20;;;3.30;87.60;;;;;;5112324;28;20038;-80
2021/01/14 05:33:40;;;;;;;5.13;1.10;;;3.30;87.50;;;;;;5104127;28;20081;-80
2021/01/14 05:36:06;;;;;;;6.60;1.10;;;3.30;87.50;;;;;;5095764;28;20393;-80
2021/01/14 05:38:32;;;;;;;12.65;1.45;;;3.30;87.40;;;;;;5095670;28;20055;-80
2021/01/14 05:41:19;;;;;;;8.82;1.65;;;3.30;87.40;;;;;;5095620;28;20415;-80
2021/01/14 05:43:53;;;;;;;5.55;1.27;;;3.30;87.30;;;;;;5113465;28;20388;-80
2021/01/14 05:46:22;;;;;;;11.48;1.40;;;3.30;87.30;;;;;;5113601;28;20024;-79
2021/01/14 05:48:49;;;;;;;9.38;1.48;;;3.20;87.30;;;;;;5109545;28;20038;-80
2021/01/14 05:51:28;;;;;;;6.82;1.30;;;3.30;87.40;;;;;;5112172;28;20102;-80
2021/01/14 05:54:05;;;;;;;6.32;1.08;;;3.30;87.50;;;;;;5112403;28;20106;-80
2021/01/14 05:56:33;;;;;;;5.75;1.30;;;3.30;87.40;;;;;;5112229;28;20081;-80
2021/01/14 05:59:00;;;;;;;6.50;1.15;;;3.20;87.30;;;;;;5111400;28;20438;-79
2021/01/14 06:01:26;;;;;;;7.45;1.20;;;3.20;87.40;;;;;;5113295;28;20107;-80
2021/01/14 06:03:52;;;;;;;6.57;1.42;;;3.20;87.40;;;;;;5089760;28;20130;-80
2021/01/14 06:06:19;;;;;;;5.57;1.17;;;3.20;87.40;;;;;;5113473;28;20110;-80
2021/01/14 06:08:45;;;;;;;7.88;1.27;;;3.20;87.30;;;;;;5091578;28;20396;-80
2021/01/14 06:11:37;;;;;;;6.38;1.17;;;3.20;87.30;;;;;;5110027;28;20024;-80
2021/01/14 06:14:02;;;;;;;9.48;1.25;;;3.20;87.30;;;;;;5107328;28;20027;-80
2021/01/14 06:16:29;;;;;;;4.57;1.13;;;3.20;87.30;;;;;;5112034;28;20028;-80
2021/01/14 06:19:05;;;;;;;4.80;1.15;;;3.20;87.30;;;;;;5113181;28;20384;-80
2021/01/14 06:21:48;;;;;;;9.25;1.10;;;3.10;87.50;;;;;;5079320;28;20028;-80
2021/01/14 06:24:18;;;;;;;9.70;1.35;;;3.10;87.60;;;;;;5113116;28;20023;-80
2021/01/14 06:26:44;;;;;;;6.70;1.27;;;3.10;87.50;;;;;;5094927;28;20086;-80
2021/01/14 06:29:39;;;;;;;5.55;1.13;;;3.10;87.40;;;;;;5112361;28;20430;-80
2021/01/14 06:32:16;;;;;;;8.52;1.63;;;3.10;87.30;;;;;;5096029;28;20028;-82
2021/01/14 06:34:46;;;;;;;8.07;1.58;;;3.10;87.10;;;;;;5098692;28;20027;-82
2021/01/14 06:37:19;;;;;;;6.05;1.20;;;3.10;87.10;;;;;;5116941;28;20701;-76
2021/01/14 06:39:46;;;;;;;5.38;1.80;;;3.10;87.20;;;;;;5098494;28;20085;-79
2021/01/14 06:42:18;;;;;;;9.90;1.55;;;3.00;87.10;;;;;;5116659;28;20110;-82
2021/01/14 06:44:52;;;;;;;7.45;1.42;;;3.10;87.10;;;;;;5098460;28;20541;-82
2021/01/14 06:47:39;;;;;;;7.28;1.23;;;3.10;87.10;;;;;;5105453;28;20034;-82
2021/01/14 06:50:26;;;;;;;6.85;1.35;;;3.10;87.30;;;;;;5093354;28;20019;-80
2021/01/14 06:53:13;;;;;;;8.63;1.30;;;3.10;87.50;;;;;;5116262;28;20040;-82
2021/01/14 06:55:39;;;;;;;5.43;1.45;;;3.00;87.50;;;;;;5115341;28;20102;-82
2021/01/14 06:58:17;;;;;;;6.50;1.40;;;3.10;87.50;;;;;;5098126;28;20128;-82
2021/01/14 07:00:43;;;;;;;11.90;1.58;;;3.00;87.60;;;;;;5115124;28;20107;-82
2021/01/14 07:03:14;;;;;;;12.07;1.30;;;3.00;87.70;;;;;;5116261;28;20102;-82
2021/01/14 07:05:52;;;;;;;5.13;1.40;;;3.00;87.80;;;;;;5116471;28;20033;-82
2021/01/14 07:08:37;;;;;;;9.88;1.55;;;3.00;87.70;;;;;;5094496;28;20020;-82
2021/01/14 07:11:15;;;;;;;8.23;1.42;;;3.00;87.70;;;;;;5077530;28;20024;-82
2021/01/14 07:13:52;;;;;;;6.45;1.60;;;3.00;87.80;;;;;;5109024;28;20028;-82
2021/01/14 07:16:23;;;;;;;2.80;1.38;;;3.00;87.90;;;;;;5114820;28;20055;-82
2021/01/14 07:18:50;;;;;;;6.40;1.90;;;3.00;87.90;;;;;;5114735;28;20032;-82
2021/01/14 07:21:19;;;;;;;5.32;1.48;;;3.00;87.90;;;;;;5116013;28;20161;-82
2021/01/14 07:23:59;;;;;;;3.67;1.20;;;3.00;88.10;;;;;;5107659;28;20024;-82
2021/01/14 07:26:25;;;;;;;9.20;1.30;;;2.90;88.30;;;;;;5123324;27;20046;-82
2021/01/14 07:28:52;;;;;;;7.35;1.23;;;2.90;88.20;;;;;;5097803;28;20918;-82
2021/01/14 07:31:26;;;;;;;8.50;1.48;;;2.90;88.10;;;;;;5097571;28;20388;-82
2021/01/14 07:33:53;;;;;;;5.35;1.27;;;2.90;88.10;;;;;;5097555;28;20023;-82
2021/01/14 07:36:26;;;;;;;6.50;1.20;;;2.90;88.80;;;;;;5098750;27;20023;-81
2021/01/14 07:38:55;;;;;;;2.60;1.02;;;2.80;88.40;;;;;;5100464;27;20024;-82
2021/01/14 07:41:22;;;;;;;9.68;1.50;;;2.80;88.50;;;;;;5124401;27;20101;-82
2021/01/14 07:43:49;;;;;;;12.32;1.40;;;2.90;88.60;;;;;;5092300;28;20040;-82
2021/01/14 07:46:23;;;;;;;10.68;1.60;;;2.90;88.60;;;;;;5114679;28;20034;-82
2021/01/14 07:48:53;;;;;;;6.57;1.42;;;2.90;88.40;;;;;;5129142;27;20027;-82
2021/01/14 07:51:19;;;;;;;8.00;1.52;;;2.90;88.40;;;;;;5096994;28;20077;-82
2021/01/14 07:54:06;;;;;;;4.80;1.30;;;2.90;88.40;;;;;;5103077;28;20395;-82
2021/01/14 07:56:44;;;;;;;5.53;1.30;;;2.90;88.30;;;;;;5096929;28;20483;-82
2021/01/14 07:59:10;;;;;;;7.03;1.77;;;2.90;88.10;;;;;;5115170;28;20028;-82
2021/01/14 08:02:03;;;;;;;7.55;1.60;;;2.90;88.10;;;;;;5115185;28;20114;-82
2021/01/14 08:04:29;;;;;;;15.57;2.00;;;2.90;88.00;;;;;;5100850;27;20064;-81
2021/01/14 08:06:54;;;;;;;10.27;1.75;;;2.90;87.70;;;;;;5104326;28;20430;-82
2021/01/14 08:09:21;;;;;;;7.60;1.73;;;2.90;87.70;;;;;;5115163;27;20024;-81
2021/01/14 08:11:46;;;;;;;12.60;2.10;;;2.90;87.70;;;;;;5074968;28;20023;-82
2021/01/14 08:14:22;;;;;;;9.77;2.20;;;2.90;87.50;;;;;;5104601;27;20076;-81
2021/01/14 08:16:55;;;;;;;10.43;1.90;;;2.90;87.30;;;;;;5121025;27;20036;-79
2021/01/14 08:19:30;;;;;;;13.77;2.40;;;2.90;86.90;;;;;;5096734;28;20050;-81
2021/01/14 08:22:02;;;;;;;6.47;1.30;;;2.90;86.80;;;;;;5096381;28;20026;-80
2021/01/14 08:24:57;;;;;;;5.50;1.75;;;2.90;86.60;;;;;;5117149;27;20089;-75
2021/01/14 08:27:32;;;;;;;13.13;2.08;;;2.90;86.70;;;;;;5094212;28;20047;-75
2021/01/14 08:30:17;;;;;;;6.55;1.90;;;2.90;86.40;;;;;;5102986;28;20562;-75
2021/01/14 08:32:42;;;;;;;10.60;1.52;;;2.90;86.20;;;;;;5095909;28;20024;-75
2021/01/14 08:35:21;;;;;;;13.55;1.75;;;2.90;85.90;;;;;;5105653;28;20042;-75
2021/01/14 08:37:47;;;;;;;5.55;1.30;;;2.80;86.60;;;;;;5114344;28;20490;-75
2021/01/14 08:40:22;;;;;;;14.40;1.30;;;2.80;85.90;;;;;;5114220;28;20028;-75
2021/01/14 08:42:58;;;;;;;23.05;1.95;;;2.80;85.90;;;;;;5103784;28;20119;-76
2021/01/14 08:45:27;;;;;;;11.52;1.40;;;2.80;85.90;;;;;;5113938;28;20361;-76
2021/01/14 08:47:59;;;;;;;10.68;1.45;;;2.80;85.90;;;;;;5113474;28;20111;-75
2021/01/14 08:50:44;;;;;;;9.13;1.88;;;2.80;85.90;;;;;;5113787;28;20036;-76
2021/01/14 08:53:11;;;;;;;13.25;1.35;;;2.90;85.80;;;;;;5101532;28;20479;-76
2021/01/14 08:55:37;;;;;;;8.57;1.23;;;2.80;85.50;;;;;;5101551;28;20042;-76
2021/01/14 08:58:06;;;;;;;7.57;1.45;;;2.90;85.60;;;;;;5095075;28;20399;-76
2021/01/14 09:00:32;;;;;;;8.60;1.70;;;2.90;85.60;;;;;;5095356;28;20115;-76
2021/01/14 09:02:58;;;;;;;10.45;1.73;;;2.90;85.40;;;;;;5112290;28;20110;-76
2021/01/14 09:05:24;;;;;;;11.35;1.75;;;2.90;85.30;;;;;;5112729;28;20065;-76
2021/01/14 09:08:04;;;;;;;9.15;2.10;;;2.90;85.40;;;;;;5096074;28;20036;-76
2021/01/14 09:10:53;;;;;;;12.45;2.05;;;2.90;85.30;;;;;;5104516;28;20450;-75
2021/01/14 09:13:20;;;;;;;;;;;2.90;85.20;;;;;;5105634;28;20027;-76
2021/01/14 09:15:46;;;;;;;7.82;1.65;;;2.90;85.20;;;;;;5113337;28;19903;-76
2021/01/14 09:18:13;;;;;;;10.55;2.00;;;2.90;85.40;;;;;;5095143;28;20036;-76
2021/01/14 09:20:39;;;;;;;7.90;1.17;;;2.90;85.30;;;;;;5094902;28;20042;-76
2021/01/14 09:23:21;;;;;;;5.50;1.48;;;3.00;85.50;;;;;;5099292;28;20442;-75
2021/01/14 09:25:49;;;;;;;10.85;1.42;;;3.00;85.50;;;;;;5093373;28;20031;-75
2021/01/14 09:28:15;;;;;;;4.65;1.30;;;3.00;85.30;;;;;;5134175;27;20435;-75
2021/01/14 09:30:42;;;;;;;6.95;1.25;;;3.00;85.30;;;;;;5113416;28;20020;-75
2021/01/14 09:33:08;;;;;;;10.80;2.05;;;3.10;85.50;;;;;;5096223;28;20031;-76
2021/01/14 09:35:33;;;;;;;15.55;5.72;;;3.10;85.30;;;;;;5105971;28;20111;-75
2021/01/14 09:37:59;;;;;;;20.90;5.47;;;3.10;85.10;;;;;;5115578;28;20057;-75
2021/01/14 09:40:25;;;;;;;17.10;6.10;;;3.20;85.00;;;;;;5104110;28;20032;-75
2021/01/14 09:42:52;;;;;;;16.83;6.55;;;3.20;85.00;;;;;;5115755;28;20023;-76
2021/01/14 09:45:21;;;;;;;32.10;15.27;;;3.20;85.00;;;;;;5127950;27;20034;-76
2021/01/14 09:47:49;;;;;;;23.77;10.40;;;3.20;84.70;;;;;;5108419;28;20092;-75
2021/01/14 09:50:15;;;;;;;16.40;6.68;;;3.20;84.50;;;;;;5095357;28;20016;-76
2021/01/14 09:52:41;;;;;;;16.67;5.40;;;3.20;84.80;;;;;;5113287;28;20390;-76
2021/01/14 09:55:13;;;;;;;15.73;4.20;;;3.30;85.00;;;;;;5095294;28;20042;-76
2021/01/14 09:57:48;;;;;;;8.85;3.67;;;3.30;84.90;;;;;;5094686;28;20028;-76
2021/01/14 10:00:27;;;;;;;8.40;2.80;;;3.30;84.60;;;;;;5110794;28;20042;-75
2021/01/14 10:03:02;;;;;;;8.23;1.92;;;3.30;84.80;;;;;;5103777;28;20030;-76
2021/01/14 10:05:29;;;;;;;6.57;2.00;;;3.40;84.80;;;;;;5088929;28;20028;-76
2021/01/14 10:08:01;;;;;;;5.35;1.67;;;3.40;84.60;;;;;;5096446;28;20434;-75
2021/01/14 10:10:30;;;;;;;7.22;1.80;;;3.40;84.60;;;;;;5135395;27;20055;-77
2021/01/14 10:12:58;;;;;;;;;;;3.40;84.30;;;;;;5112572;28;20027;-78
2021/01/14 10:15:23;;;;;;;5.82;1.40;;;3.50;84.30;;;;;;5119631;27;20283;-79
2021/01/14 10:17:49;;;;;;;5.32;1.65;;;3.50;84.60;;;;;;5098484;28;20031;-77
2021/01/14 10:20:15;;;;;;;11.00;1.60;;;3.50;84.40;;;;;;5134745;27;20391;-77
2021/01/14 10:22:52;;;;;;;9.70;2.08;;;3.60;84.40;;;;;;5089645;28;20035;-77
2021/01/14 10:25:19;;;;;;;8.88;2.13;;;3.60;83.70;;;;;;5106367;27;20027;-77
2021/01/14 10:28:06;;;;;;;9.45;1.60;;;3.60;83.30;;;;;;5137018;27;20430;-77
2021/01/14 10:30:38;;;;;;;11.57;1.92;;;3.60;83.20;;;;;;5118593;27;20020;-77
2021/01/14 10:33:05;;;;;;;7.38;1.88;;;3.50;83.10;;;;;;5098109;28;20032;-78
2021/01/14 10:35:33;;;;;;;7.68;1.83;;;3.50;82.50;;;;;;5098022;28;20035;-77
2021/01/14 10:38:10;;;;;;;8.20;1.75;;;3.50;82.90;;;;;;5117801;27;20054;-77
2021/01/14 10:40:40;;;;;;;10.13;1.95;;;3.50;82.80;;;;;;5115333;27;20110;-77
2021/01/14 10:43:07;;;;;;;8.52;2.25;;;3.60;82.90;;;;;;5116209;28;20031;-77
2021/01/14 10:45:35;;;;;;;9.95;2.20;;;3.60;82.40;;;;;;5116143;28;20377;-78
2021/01/14 10:48:17;;;;;;;11.27;2.30;;;3.60;82.20;;;;;;5114717;28;20118;-77
2021/01/14 10:50:45;;;;;;;11.35;2.50;;;3.60;82.40;;;;;;5097341;27;20452;-77
2021/01/14 10:53:10;;;;;;;10.95;2.30;;;3.60;82.00;;;;;;5117396;27;20031;-78
2021/01/14 10:55:36;;;;;;;10.77;2.33;;;3.60;82.00;;;;;;5110647;27;20027;-77
2021/01/14 10:58:04;;;;;;;10.65;2.35;;;3.60;81.80;;;;;;5104862;27;20031;-78
2021/01/14 11:00:40;;;;;;;14.65;2.90;;;3.60;82.10;;;;;;5109013;27;20080;-78
2021/01/14 11:03:09;;;;;;;15.93;4.72;;;3.70;82.70;;;;;;5099831;27;20036;-78
2021/01/14 11:05:48;;;;;;;11.98;3.80;;;3.70;81.30;;;;;;5100078;27;20468;-78
2021/01/14 11:08:27;;;;;;;24.05;5.85;;;3.60;81.30;;;;;;5097508;28;20061;-77
2021/01/14 11:11:07;;;;;;;18.67;5.28;;;3.60;81.60;;;;;;5116063;27;20028;-78
2021/01/14 11:13:47;;;;;;;16.67;3.88;;;3.60;81.00;;;;;;5082123;28;20031;-78
2021/01/14 11:16:15;;;;;;;14.25;4.53;;;3.60;81.50;;;;;;5097464;28;20081;-78
2021/01/14 11:18:42;;;;;;;13.60;3.42;;;3.70;81.50;;;;;;5098382;28;20039;-80
2021/01/14 11:21:09;;;;;;;12.07;3.03;;;3.70;81.70;;;;;;5120808;27;20027;-81
2021/01/14 11:23:35;;;;;;;10.43;2.47;;;3.80;82.10;;;;;;5114687;27;20122;-81
2021/01/14 11:26:03;;;;;;;15.02;2.65;;;3.90;81.70;;;;;;5125407;27;20035;-78
2021/01/14 11:28:30;;;;;;;9.40;2.60;;;3.90;81.10;;;;;;5128058;27;20034;-78
2021/01/14 11:30:56;;;;;;;9.02;2.38;;;3.90;81.50;;;;;;5107031;27;20268;-78
2021/01/14 11:33:22;;;;;;;5.22;2.20;;;3.90;81.00;;;;;;5085812;27;20023;-76
2021/01/14 11:35:48;;;;;;;9.45;2.65;;;3.90;80.80;;;;;;5085181;27;20042;-75
2021/01/14 11:38:13;;;;;;;9.75;2.88;;;3.80;80.90;;;;;;5117512;27;20041;-75
2021/01/14 11:40:39;;;;;;;8.18;2.80;;;3.80;80.80;;;;;;5117471;27;20034;-76
2021/01/14 11:43:05;;;;;;;5.82;2.10;;;3.80;81.00;;;;;;5136025;27;20061;-75
2021/01/14 11:45:30;;;;;;;6.10;2.15;;;3.80;80.80;;;;;;5100888;27;20034;-75
2021/01/14 11:47:56;;;;;;;8.23;2.80;;;3.80;81.10;;;;;;5127490;27;20023;-76
2021/01/14 11:50:21;;;;;;;10.25;3.15;;;3.80;81.10;;;;;;5059920;28;20035;-76
2021/01/14 11:52:48;;;;;;;10.10;2.72;;;3.90;81.00;;;;;;5059907;28;20119;-76
2021/01/14 11:55:14;;;;;;;5.30;2.25;;;3.90;80.70;;;;;;5110384;27;20084;-76
2021/01/14 11:57:40;;;;;;;9.00;2.28;;;3.90;80.80;;;;;;5130336;27;20035;-76
2021/01/14 12:00:07;;;;;;;6.65;2.92;;;3.90;80.60;;;;;;5096918;28;20430;-75
2021/01/14 12:02:33;;;;;;;17.33;3.10;;;4.00;80.10;;;;;;5114714;28;20491;-76
2021/01/14 12:04:58;;;;;;;6.72;2.63;;;3.90;79.60;;;;;;5062972;28;20114;-75
2021/01/14 12:07:24;;;;;;;7.35;2.60;;;3.90;79.20;;;;;;5096362;28;20024;-76
2021/01/14 12:09:50;;;;;;;7.20;2.67;;;3.90;79.50;;;;;;5114925;28;20055;-76
2021/01/14 12:12:15;;;;;;;9.48;3.17;;;3.90;79.80;;;;;;5063027;28;20066;-75
2021/01/14 12:14:41;;;;;;;4.25;2.22;;;3.90;79.20;;;;;;5096626;28;20397;-75
2021/01/14 12:17:06;;;;;;;8.98;2.70;;;3.90;79.20;;;;;;5122250;27;20543;-75
2021/01/14 12:19:32;;;;;;;8.65;2.50;;;3.90;80.10;;;;;;5099584;27;20031;-75
2021/01/14 12:22:05;;;;;;;5.50;2.40;;;3.90;79.60;;;;;;5108484;28;20024;-76
2021/01/14 12:24:30;;;;;;;9.52;3.13;;;4.00;79.50;;;;;;5126087;27;20148;-78
2021/01/14 12:26:56;;;;;;;6.93;3.10;;;4.00;79.30;;;;;;5116764;27;20095;-79
2021/01/14 12:29:23;;;;;;;6.13;2.90;;;4.00;79.30;;;;;;5116794;28;20039;-78
2021/01/14 12:31:49;;;;;;;8.68;3.45;;;4.00;79.30;;;;;;5134394;27;20450;-80
2021/01/14 12:34:14;;;;;;;8.38;3.38;;;4.00;79.40;;;;;;5099362;27;20031;-80
2021/01/14 12:36:40;;;;;;;7.00;3.90;;;4.10;79.50;;;;;;5087993;28;20127;-80
2021/01/14 12:39:06;;;;;;;7.93;3.33;;;4.00;78.80;;;;;;5095410;28;20035;-79
2021/01/14 12:41:32;;;;;;;10.07;4.40;;;4.00;79.10;;;;;;5096269;28;20036;-76
2021/01/14 12:43:58;;;;;;;10.98;4.43;;;4.00;79.20;;;;;;5119317;27;20025;-78
2021/01/14 12:46:39;;;;;;;10.80;4.82;;;4.00;78.50;;;;;;5122314;27;20379;-77
2021/01/14 12:49:07;;;;;;;6.43;4.32;;;3.90;78.70;;;;;;5131578;27;20030;-76
2021/01/14 12:51:34;;;;;;;9.93;5.05;;;3.90;79.50;;;;;;5107901;28;20333;-77
2021/01/14 12:53:59;;;;;;;10.45;5.00;;;3.90;78.80;;;;;;5113902;28;20387;-77
2021/01/14 12:56:25;;;;;;;16.40;6.47;;;4.00;79.00;;;;;;5111184;28;20023;-77
2021/01/14 12:58:51;;;;;;;12.20;6.55;;;4.00;78.80;;;;;;5093769;28;20476;-77
2021/01/14 13:01:25;;;;;;;13.88;7.03;;;4.00;78.70;;;;;;5092784;27;20042;-79
2021/01/14 13:03:51;;;;;;;13.30;6.65;;;4.00;78.90;;;;;;5112935;27;20387;-80